Time;durP1;ratioP1;P1;durP2;ratioP2;P2;SDS_P1;SDS_P2;PMS_P1;PMS_P2;Temp;Humidity;BMP_temperature;BMP_pressure;BME280_temperature;BME280_humidity;BME280_pressure;Samples;Min_cycle;Max_cycle;Signal;HPM_P1;HPM_P2
2021/10/08 00:01:39;;;;;;;61.17;31.50;;;;;;;10.59;100.00;103194.19;5014535;28;20456;-75
2021/10/08 00:04:05;;;;;;;68.72;34.72;;;;;;;10.56;100.00;103195.72;5012081;28;20101;-75
2021/10/08 00:06:30;;;;;;;66.57;33.08;;;;;;;10.58;100.00;103186.16;5010889;28;20034;-75
2021/10/08 00:08:57;;;;;;;54.78;30.17;;;;;;;10.54;100.00;103189.47;5009944;28;20030;-75
2021/10/08 00:11:23;;;;;;;63.17;32.42;;;;;;;10.49;100.00;103190.97;5012825;28;20041;-75
2021/10/08 00:13:48;;;;;;;61.13;32.03;;;;;;;10.44;100.00;103191.63;5010798;28;20053;-75
2021/10/08 00:16:14;;;;;;;68.85;33.60;;;;;;;10.42;100.00;103190.59;5012961;28;20026;-75
2021/10/08 00:18:40;;;;;;;71.13;32.78;;;;;;;10.41;100.00;103196.69;5011254;28;20060;-75
2021/10/08 00:21:06;;;;;;;66.22;33.13;;;;;;;10.37;100.00;103192.06;5012403;28;20061;-75
2021/10/08 00:23:32;;;;;;;73.03;34.65;;;;;;;10.37;100.00;103194.72;5011548;28;20053;-75
2021/10/08 00:25:58;;;;;;;66.15;32.65;;;;;;;10.34;100.00;103189.25;5010785;28;20026;-75
2021/10/08 00:28:24;;;;;;;78.10;35.97;;;;;;;10.34;100.00;103202.41;5011155;28;20022;-75
2021/10/08 00:30:50;;;;;;;71.53;33.78;;;;;;;10.30;100.00;103200.44;5012872;28;20034;-75
2021/10/08 00:33:15;;;;;;;80.78;36.40;;;;;;;10.31;100.00;103202.25;5013541;28;20018;-75
2021/10/08 00:35:40;;;;;;;69.68;32.40;;;;;;;10.26;100.00;103203.72;5012619;28;20030;-75
2021/10/08 00:38:07;;;;;;;95.43;34.15;;;;;;;10.23;100.00;103195.66;5013927;28;20044;-75
2021/10/08 00:40:34;;;;;;;82.15;34.88;;;;;;;10.24;100.00;103206.25;5012711;28;20392;-75
2021/10/08 00:43:00;;;;;;;92.95;37.35;;;;;;;10.23;100.00;103206.19;5008925;28;20034;-75
2021/10/08 00:45:25;;;;;;;82.55;36.20;;;;;;;10.22;100.00;103207.88;5012802;28;20429;-75
2021/10/08 00:48:02;;;;;;;71.55;31.63;;;;;;;10.18;100.00;103210.28;5016007;28;20033;-75
2021/10/08 00:50:27;;;;;;;83.88;34.60;;;;;;;10.10;100.00;103207.19;5012834;28;20030;-74
2021/10/08 00:52:53;;;;;;;74.88;31.92;;;;;;;10.02;100.00;103214.63;5022323;28;20033;-75
2021/10/08 00:55:18;;;;;;;69.45;31.92;;;;;;;9.98;100.00;103212.66;5021825;28;20029;-75
2021/10/08 00:57:48;;;;;;;75.65;30.85;;;;;;;9.92;100.00;103218.47;5008292;28;20053;-74
2021/10/08 01:00:16;;;;;;;81.35;32.28;;;;;;;9.91;100.00;103215.75;5016092;28;20030;-73
2021/10/08 01:02:42;;;;;;;89.38;32.22;;;;;;;9.87;100.00;103213.78;5016476;28;20022;-73
2021/10/08 01:05:08;;;;;;;70.85;31.92;;;;;;;9.85;100.00;103211.06;5014790;28;20038;-74
2021/10/08 01:07:33;;;;;;;106.85;33.33;;;;;;;9.77;100.00;103207.97;5015108;28;20033;-74
2021/10/08 01:09:59;;;;;;;93.90;34.83;;;;;;;9.83;100.00;103217.03;5014991;28;20025;-74
2021/10/08 01:12:24;;;;;;;111.40;34.10;;;;;;;9.83;100.00;103217.94;5026841;28;20030;-74
2021/10/08 01:14:50;;;;;;;99.18;34.45;;;;;;;9.74;100.00;103220.97;5009742;28;20087;-74
2021/10/08 01:17:18;;;;;;;94.97;34.13;;;;;;;9.74;100.00;103218.31;5013615;28;20076;-74
2021/10/08 01:19:45;;;;;;;104.35;34.55;;;;;;;9.76;100.00;103224.56;5013940;28;20499;-74
2021/10/08 01:22:11;;;;;;;117.32;35.90;;;;;;;9.69;100.00;103221.50;5015481;28;20073;-74
2021/10/08 01:24:36;;;;;;;152.35;36.05;;;;;;;9.68;100.00;103217.06;5012056;28;20077;-73
2021/10/08 01:27:07;;;;;;;108.15;37.40;;;;;;;9.72;100.00;103217.31;5013656;28;20124;-74
2021/10/08 01:29:34;;;;;;;123.00;36.05;;;;;;;9.67;100.00;103218.78;5015157;28;20049;-74
2021/10/08 01:32:00;;;;;;;145.80;37.25;;;;;;;9.61;100.00;103214.06;5015161;28;20386;-74
2021/10/08 01:34:26;;;;;;;163.50;35.95;;;;;;;9.55;100.00;103211.09;5015631;28;20018;-74
2021/10/08 01:36:51;;;;;;;104.57;35.28;;;;;;;9.53;100.00;103206.56;5011484;28;20026;-74
2021/10/08 01:39:17;;;;;;;124.75;34.88;;;;;;;9.52;100.00;103215.25;5013528;28;20049;-74
2021/10/08 01:41:43;;;;;;;96.80;33.85;;;;;;;9.49;100.00;103213.34;5015339;28;20037;-74
2021/10/08 01:44:08;;;;;;;107.72;33.20;;;;;;;9.45;100.00;103222.78;5014051;28;20041;-74
2021/10/08 01:46:33;;;;;;;114.28;34.88;;;;;;;9.41;100.00;103226.03;5013746;28;20076;-75
2021/10/08 01:48:59;;;;;;;117.60;35.88;;;;;;;9.44;100.00;103223.59;5014495;28;20151;-74
2021/10/08 01:51:24;;;;;;;91.15;35.28;;;;;;;9.38;100.00;103223.22;5010305;28;20478;-74
2021/10/08 01:53:50;;;;;;;76.20;31.20;;;;;;;9.36;100.00;103216.03;5010700;28;20021;-75
2021/10/08 01:56:15;;;;;;;95.20;34.17;;;;;;;9.32;100.00;103220.22;5013962;28;20037;-74
2021/10/08 01:58:41;;;;;;;109.55;34.20;;;;;;;9.28;100.00;103226.13;5019603;28;20036;-75
2021/10/08 02:01:06;;;;;;;100.38;35.08;;;;;;;9.28;100.00;103219.13;5014742;28;20029;-75
2021/10/08 02:03:32;;;;;;;112.60;35.65;;;;;;;9.27;100.00;103219.03;5013063;28;20112;-74
2021/10/08 02:05:58;;;;;;;135.68;34.65;;;;;;;9.24;100.00;103225.00;5013013;28;20040;-75
2021/10/08 02:08:23;;;;;;;129.55;34.42;;;;;;;9.19;100.00;103220.31;5013578;28;20033;-74
2021/10/08 02:10:49;;;;;;;148.68;33.50;;;;;;;9.19;100.00;103230.81;5015215;28;20034;-75
2021/10/08 02:13:14;;;;;;;122.45;34.97;;;;;;;9.19;100.00;103228.19;5016634;28;20496;-73
2021/10/08 02:15:39;;;;;;;112.57;36.15;;;;;;;9.22;100.00;103228.38;5014380;28;20033;-75
2021/10/08 02:18:05;;;;;;;101.25;33.22;;;;;;;9.13;100.00;103220.84;5009802;28;20370;-75
2021/10/08 02:20:30;;;;;;;127.00;32.28;;;;;;;9.11;100.00;103222.44;5012275;28;20041;-75
2021/10/08 02:22:55;;;;;;;149.02;34.28;;;;;;;9.10;100.00;103220.63;5013950;28;20045;-75
2021/10/08 02:25:21;;;;;;;136.70;33.88;;;;;;;9.08;100.00;103222.28;5014372;28;20045;-75
2021/10/08 02:27:46;;;;;;;207.15;33.22;;;;;;;9.13;100.00;103225.16;5012117;28;20076;-75
2021/10/08 02:30:13;;;;;;;173.57;34.10;;;;;;;9.08;100.00;103223.16;5013521;28;20486;-74
2021/10/08 02:32:38;;;;;;;129.73;37.25;;;;;;;9.10;100.00;103225.88;5014436;28;20156;-76
2021/10/08 02:35:04;;;;;;;175.85;34.08;;;;;;;9.02;100.00;103230.69;5013671;28;20022;-76
2021/10/08 02:37:30;;;;;;;88.93;32.95;;;;;;;9.05;100.00;103228.25;5012446;28;20061;-75
2021/10/08 02:39:55;;;;;;;181.80;34.28;;;;;;;9.05;100.00;103229.97;5013057;28;20072;-75
2021/10/08 02:42:20;;;;;;;129.88;35.88;;;;;;;9.01;100.00;103228.88;5015296;28;20069;-75
2021/10/08 02:44:46;;;;;;;177.35;33.38;;;;;;;8.98;100.00;103228.69;5013355;28;20030;-74
2021/10/08 02:47:11;;;;;;;194.52;32.97;;;;;;;8.98;100.00;103226.06;5014343;28;20044;-75
2021/10/08 02:49:37;;;;;;;196.15;35.65;;;;;;;8.97;100.00;103221.63;5013818;28;20536;-75
2021/10/08 02:52:03;;;;;;;174.27;32.50;;;;;;;8.95;100.00;103223.22;5022714;28;20034;-75
2021/10/08 02:54:29;;;;;;;221.95;32.45;;;;;;;8.91;100.00;103234.34;5034312;28;20019;-75
2021/10/08 02:56:54;;;;;;;226.82;33.47;;;;;;;8.89;100.00;103231.63;5019639;28;20112;-75
2021/10/08 02:59:19;;;;;;;226.38;34.67;;;;;;;8.85;100.00;103231.38;5014018;28;20038;-75
2021/10/08 03:01:45;;;;;;;169.20;34.47;;;;;;;8.88;100.00;103234.16;5014276;28;20108;-75
2021/10/08 03:04:10;;;;;;;211.55;35.72;;;;;;;8.86;100.00;103235.81;5014845;28;20477;-74
2021/10/08 03:06:35;;;;;;;189.93;36.67;;;;;;;8.83;100.00;103233.91;5011791;28;20420;-75
2021/10/08 03:09:01;;;;;;;294.02;35.60;;;;;;;8.84;100.00;103237.41;5012836;28;20030;-75
2021/10/08 03:11:26;;;;;;;214.48;36.10;;;;;;;8.73;100.00;103228.88;5013509;28;20072;-75
2021/10/08 03:13:52;;;;;;;170.18;36.53;;;;;;;8.81;100.00;103238.13;5014209;28;20107;-74
2021/10/08 03:16:17;;;;;;;189.43;36.38;;;;;;;8.82;100.00;103236.41;5011789;28;20533;-75
2021/10/08 03:18:45;;;;;;;186.63;38.67;;;;;;;8.85;100.00;103234.00;5012200;28;20087;-75
2021/10/08 03:21:10;;;;;;;210.40;36.13;;;;;;;8.85;100.00;103239.25;5013638;28;20041;-75
2021/10/08 03:23:36;;;;;;;181.35;32.17;;;;;;;8.82;100.00;103237.31;5012683;28;20050;-75
2021/10/08 03:26:01;;;;;;;224.80;32.90;;;;;;;8.85;100.00;103234.00;5011503;28;20037;-75
2021/10/08 03:28:27;;;;;;;212.13;36.10;;;;;;;8.85;100.00;103239.25;5014104;28;20108;-75
2021/10/08 03:30:52;;;;;;;267.83;33.60;;;;;;;8.80;100.00;103236.31;5024844;28;20041;-75
2021/10/08 03:33:18;;;;;;;167.70;32.58;;;;;;;8.76;100.00;103234.31;5012164;28;20032;-75
2021/10/08 03:35:43;;;;;;;224.02;33.75;;;;;;;8.81;100.00;103232.88;5009223;28;20038;-75
2021/10/08 03:38:20;;;;;;;161.20;29.55;;;;;;;8.73;100.00;103234.13;5013566;28;20106;-74
2021/10/08 03:41:31;;;;;;;150.63;31.67;;;;;;;8.78;100.00;103237.94;5013584;28;20109;-74
2021/10/08 03:43:33;;;;;;;208.98;30.10;;;;;;;8.66;100.00;103243.31;5006969;28;20057;-75
2021/10/08 03:46:05;;;;;;;186.40;30.73;;;;;;;8.69;100.00;103242.63;5013365;28;20457;-74
2021/10/08 03:50:56;;;;;;;200.15;30.25;;;;;;;8.59;100.00;103238.50;5012326;28;20084;-75
2021/10/08 03:53:22;;;;;;;200.02;28.55;;;;;;;8.56;100.00;103230.41;5012524;28;20034;-74
2021/10/08 03:55:47;;;;;;;61.33;29.52;;;;;;;8.59;100.00;103225.38;5013216;28;20038;-74
2021/10/08 03:58:12;;;;;;;224.20;30.50;;;;;;;8.56;100.00;103233.03;5013147;28;20382;-75
2021/10/08 04:00:38;;;;;;;272.40;31.48;;;;;;;8.61;100.00;103239.50;5010653;28;20429;-74
2021/10/08 04:03:03;;;;;;;190.32;29.73;;;;;;;8.53;100.00;103238.09;5012506;28;20049;-74
2021/10/08 04:05:28;;;;;;;187.02;28.75;;;;;;;8.51;100.00;103238.00;5014029;28;20022;-74
2021/10/08 04:07:54;;;;;;;165.00;31.83;;;;;;;8.53;100.00;103240.72;5013378;28;20038;-75
2021/10/08 04:10:19;;;;;;;226.05;27.83;;;;;;;8.50;100.00;103235.28;5011352;28;20042;-74
2021/10/08 04:12:44;;;;;;;184.93;27.92;;;;;;;8.46;100.00;103230.66;5011394;28;20414;-75
2021/10/08 04:15:10;;;;;;;91.45;29.13;;;;;;;8.49;100.00;103236.09;5013123;28;20056;-75
2021/10/08 04:17:35;;;;;;;200.27;30.63;;;;;;;8.54;100.00;103237.31;5010432;28;20496;-75
2021/10/08 04:20:00;;;;;;;155.32;28.77;;;;;;;8.55;100.00;103240.03;5012190;28;20528;-75
2021/10/08 04:22:26;;;;;;;158.43;26.95;;;;;;;8.50;100.00;103240.53;5013747;28;20089;-75
2021/10/08 04:24:51;;;;;;;100.40;26.95;;;;;;;8.58;100.00;103234.97;5016100;28;20034;-75
2021/10/08 04:27:16;;;;;;;158.63;29.90;;;;;;;8.56;100.00;103235.66;5015670;28;20026;-75
2021/10/08 04:29:41;;;;;;;241.80;28.88;;;;;;;8.53;100.00;103240.72;5017553;28;20040;-74
2021/10/08 04:32:07;;;;;;;177.27;26.88;;;;;;;8.54;100.00;103239.94;5016156;28;20393;-75
2021/10/08 04:34:32;;;;;;;236.30;26.85;;;;;;;8.46;100.00;103239.44;5015996;28;20146;-74
2021/10/08 04:36:58;;;;;;;164.70;27.95;;;;;;;8.41;100.00;103241.75;5015337;28;20076;-74
2021/10/08 04:39:23;;;;;;;249.38;26.83;;;;;;;8.44;100.00;103248.91;5016324;28;20381;-74
2021/10/08 04:41:48;;;;;;;171.15;25.95;;;;;;;8.42;100.00;103248.81;5016969;28;20022;-75
2021/10/08 04:44:14;;;;;;;61.47;24.42;;;;;;;8.40;100.00;103246.91;5016066;28;20382;-75
2021/10/08 04:46:39;;;;;;;107.32;27.13;;;;;;;8.41;100.00;103252.22;5011856;28;20030;-75
2021/10/08 04:49:04;;;;;;;151.13;28.02;;;;;;;8.40;100.00;103250.41;5015650;28;20037;-75
2021/10/08 04:51:30;;;;;;;184.07;28.92;;;;;;;8.45;100.00;103242.88;5014909;28;20513;-76
2021/10/08 04:53:55;;;;;;;257.15;27.92;;;;;;;8.40;100.00;103245.16;5026241;28;20466;-75
2021/10/08 04:56:20;;;;;;;318.58;29.88;;;;;;;8.33;100.00;103244.66;5013585;28;20025;-75
2021/10/08 04:58:46;;;;;;;210.35;27.42;;;;;;;8.28;100.00;103239.13;5024532;28;20358;-75
2021/10/08 05:01:11;;;;;;;185.45;26.80;;;;;;;8.25;100.00;103238.94;5016202;28;20415;-75
2021/10/08 05:03:36;;;;;;;145.88;27.08;;;;;;;8.33;100.00;103237.72;5016921;28;20496;-74
2021/10/08 05:06:02;;;;;;;123.57;26.13;;;;;;;8.36;100.00;103252.75;5015823;28;20156;-75
2021/10/08 05:08:27;;;;;;;104.35;29.20;;;;;;;8.49;100.00;103249.22;5015533;28;20153;-75
2021/10/08 05:10:52;;;;;;;167.70;27.73;;;;;;;8.49;100.00;103249.22;5011319;28;20523;-75
2021/10/08 05:13:18;;;;;;;234.70;26.73;;;;;;;8.32;100.00;103251.63;5014999;28;20109;-76
2021/10/08 05:15:43;;;;;;;216.70;24.83;;;;;;;8.38;100.00;103259.91;5013529;28;20041;-75
2021/10/08 05:18:10;;;;;;;163.70;26.02;;;;;;;8.24;100.00;103250.22;5010599;28;20044;-75
2021/10/08 05:20:35;;;;;;;118.72;26.67;;;;;;;8.41;100.00;103267.97;5014530;28;20056;-75
2021/10/08 05:23:01;;;;;;;174.90;24.45;;;;;;;8.31;100.00;103257.69;5012583;28;20045;-75
2021/10/08 05:25:26;;;;;;;277.65;24.73;;;;;;;8.21;100.00;103264.06;5013403;28;20101;-74
2021/10/08 05:27:52;;;;;;;339.67;25.00;;;;;;;8.19;100.00;103264.75;5012212;28;20040;-73
2021/10/08 05:30:17;;;;;;;265.63;29.33;;;;;;;8.13;100.00;103265.28;5014273;28;20022;-74
2021/10/08 05:32:43;;;;;;;199.00;25.85;;;;;;;8.10;100.00;103262.47;5015630;28;20030;-71
2021/10/08 05:35:09;;;;;;;178.85;22.67;;;;;;;8.09;100.00;103273.75;5003877;28;20030;-73
2021/10/08 05:37:35;;;;;;;221.75;26.38;;;;;;;8.04;100.00;103268.19;5013089;28;20113;-73
2021/10/08 05:40:01;;;;;;;124.03;22.92;;;;;;;8.06;100.00;103263.97;5015795;28;20541;-73
2021/10/08 05:42:26;;;;;;;135.18;21.85;;;;;;;8.06;100.00;103273.56;5016082;28;20018;-73
2021/10/08 05:44:52;;;;;;;89.32;23.77;;;;;;;8.05;100.00;103267.38;5014088;28;20063;-73
2021/10/08 05:47:17;;;;;;;195.13;23.55;;;;;;;8.03;100.00;103274.25;5013142;28;20109;-73
2021/10/08 05:49:43;;;;;;;283.05;23.42;;;;;;;8.01;100.00;103274.94;5015237;28;20046;-73
2021/10/08 05:52:08;;;;;;;294.67;25.80;;;;;;;8.00;100.00;103275.75;5030323;28;20553;-73
2021/10/08 05:54:33;;;;;;;190.82;24.77;;;;;;;8.03;100.00;103270.69;5013473;28;20029;-76
2021/10/08 05:56:59;;;;;;;200.45;23.45;;;;;;;8.02;100.00;103274.16;5014110;28;20544;-73
2021/10/08 05:59:24;;;;;;;177.55;24.05;;;;;;;7.98;100.00;103270.41;5014280;28;20038;-74
2021/10/08 06:01:49;;;;;;;173.05;24.95;;;;;;;7.97;100.00;103273.81;5013274;28;20030;-75
2021/10/08 06:04:15;;;;;;;138.75;23.83;;;;;;;8.02;100.00;103277.66;5013475;28;20044;-75
2021/10/08 06:06:40;;;;;;;172.70;23.75;;;;;;;8.02;100.00;103276.78;5011933;28;20112;-75
2021/10/08 06:09:06;;;;;;;122.50;24.95;;;;;;;8.05;100.00;103271.72;5014438;28;20062;-75
2021/10/08 06:11:32;;;;;;;113.30;22.15;;;;;;;8.07;100.00;103276.25;5032466;28;20029;-75
2021/10/08 06:13:57;;;;;;;215.77;23.13;;;;;;;8.08;100.00;103270.22;5026158;28;20022;-75
2021/10/08 06:16:23;;;;;;;186.60;22.92;;;;;;;8.06;100.00;103287.56;5013724;28;20046;-75
2021/10/08 06:18:49;;;;;;;188.32;22.45;;;;;;;8.01;100.00;103281.09;5029567;28;20087;-76
2021/10/08 06:21:14;;;;;;;182.25;25.60;;;;;;;8.00;100.00;103279.25;5012946;28;20042;-76
2021/10/08 06:23:39;;;;;;;258.98;26.38;;;;;;;7.98;100.00;103286.13;5014674;28;20134;-75
2021/10/08 06:26:05;;;;;;;175.55;25.80;;;;;;;8.04;100.00;103285.63;5014703;28;20108;-75
2021/10/08 06:28:31;;;;;;;101.72;22.33;;;;;;;8.00;100.00;103295.00;5015957;28;20030;-74
2021/10/08 06:30:58;;;;;;;288.13;25.33;;;;;;;7.96;100.00;103292.97;5014269;28;20037;-75
2021/10/08 06:33:23;;;;;;;209.07;24.17;;;;;;;7.91;100.00;103290.06;5013416;28;20136;-75
2021/10/08 06:35:49;;;;;;;283.50;23.98;;;;;;;7.87;100.00;103297.63;5013976;28;20564;-74
2021/10/08 06:38:14;;;;;;;193.70;24.27;;;;;;;7.90;100.00;103297.84;5014585;28;20113;-74
2021/10/08 06:40:40;;;;;;;215.05;25.90;;;;;;;7.89;100.00;103296.91;5012052;28;20045;-75
2021/10/08 06:43:06;;;;;;;135.48;22.52;;;;;;;7.90;100.00;103305.69;5025669;28;20045;-76
2021/10/08 06:45:34;;;;;;;176.60;23.48;;;;;;;7.97;100.00;103307.03;5013182;28;20030;-74
2021/10/08 06:47:59;;;;;;;150.23;23.85;;;;;;;7.96;100.00;103308.72;5013631;28;20492;-75
2021/10/08 06:50:25;;;;;;;233.65;25.10;;;;;;;8.01;100.00;103307.31;5013428;28;20118;-74
2021/10/08 06:52:50;;;;;;;97.43;21.48;;;;;;;8.10;100.00;103315.81;5014060;28;20064;-75
2021/10/08 06:55:16;;;;;;;170.48;23.55;;;;;;;8.04;100.00;103317.09;5013098;28;20088;-74
2021/10/08 06:57:41;;;;;;;248.63;25.05;;;;;;;8.07;100.00;103312.97;5011029;28;20026;-74
2021/10/08 07:00:07;;;;;;;115.60;24.02;;;;;;;8.11;100.00;103321.94;5008325;28;20469;-74
2021/10/08 07:02:33;;;;;;;120.22;22.73;;;;;;;8.10;100.00;103323.66;5012959;28;20044;-74
2021/10/08 07:04:59;;;;;;;151.60;21.23;;;;;;;8.07;100.00;103328.72;5011729;28;20018;-74
2021/10/08 07:07:26;;;;;;;149.50;21.63;;;;;;;8.05;100.00;103325.06;5012665;28;20060;-75
2021/10/08 07:09:51;;;;;;;259.95;22.63;;;;;;;8.13;100.00;103330.84;5013388;28;20034;-75
2021/10/08 07:12:16;;;;;;;203.73;21.92;;;;;;;8.05;100.00;103330.31;5011863;28;20037;-75
2021/10/08 07:14:42;;;;;;;198.85;23.58;;;;;;;8.07;100.00;103326.09;5011686;28;20026;-75
2021/10/08 07:17:08;;;;;;;350.02;21.85;;;;;;;8.01;100.00;103328.28;5013234;28;20129;-74
2021/10/08 07:19:34;;;;;;;194.05;21.00;;;;;;;7.96;100.00;103324.44;5010997;28;20030;-73
2021/10/08 07:22:00;;;;;;;180.13;20.02;;;;;;;8.01;100.00;103333.53;5012841;28;20049;-74
2021/10/08 07:24:26;;;;;;;103.72;17.38;;;;;;;8.02;100.00;103332.72;5013272;28;20063;-75
2021/10/08 07:26:52;;;;;;;263.88;19.40;;;;;;;7.93;100.00;103332.09;5013142;28;20045;-75
2021/10/08 07:29:17;;;;;;;152.85;18.40;;;;;;;7.93;100.00;103334.72;5013202;28;20026;-75
2021/10/08 07:31:42;;;;;;;153.95;18.98;;;;;;;7.93;100.00;103345.22;5013129;28;20105;-75
2021/10/08 07:34:08;;;;;;;194.43;18.80;;;;;;;7.96;100.00;103339.28;5011494;28;20394;-74
2021/10/08 07:36:34;;;;;;;124.55;17.95;;;;;;;8.01;100.00;103344.03;5013945;28;20481;-74
2021/10/08 07:39:00;;;;;;;157.20;16.60;;;;;;;8.04;100.00;103344.22;5013581;28;20136;-74
2021/10/08 07:41:25;;;;;;;150.15;16.63;;;;;;;7.96;100.00;103344.53;5013967;28;20034;-75
2021/10/08 07:43:51;;;;;;;111.97;17.35;;;;;;;8.08;100.00;103354.13;5013156;28;20104;-75
2021/10/08 07:46:16;;;;;;;118.20;16.75;;;;;;;8.02;100.00;103345.84;5011702;28;20041;-76
2021/10/08 07:48:42;;;;;;;54.85;15.60;;;;;;;8.02;100.00;103345.84;5012516;28;20030;-75
2021/10/08 07:51:07;;;;;;;265.17;18.88;;;;;;;8.09;100.00;103348.06;5013173;28;20026;-75
2021/10/08 07:53:34;;;;;;;139.50;17.33;;;;;;;8.09;100.00;103345.44;5013520;28;20030;-75
2021/10/08 07:55:59;;;;;;;183.63;17.60;;;;;;;8.13;100.00;103348.28;5014374;28;20032;-75
2021/10/08 07:58:28;;;;;;;86.95;18.13;;;;;;;8.17;100.00;103342.44;5018492;28;20033;-75
2021/10/08 08:00:57;;;;;;;74.05;16.75;;;;;;;8.25;100.00;103354.34;5017310;28;20489;-75
2021/10/08 08:03:24;;;;;;;181.88;17.33;;;;;;;8.26;100.00;103361.41;5016882;28;20046;-74
2021/10/08 08:05:50;;;;;;;163.55;16.38;;;;;;;8.31;100.00;103356.47;5016251;28;20060;-74
2021/10/08 08:08:16;;;;;;;56.80;17.52;;;;;;;8.36;100.00;103345.47;5016950;28;20095;-74
2021/10/08 08:10:41;;;;;;;97.82;16.35;;;;;;;8.39;100.00;103353.53;5017211;28;20033;-75
2021/10/08 08:13:06;;;;;;;129.00;18.02;;;;;;;8.46;100.00;103360.13;5017153;28;20818;-75
2021/10/08 08:15:32;;;;;;;122.03;15.40;;;;;;;8.54;100.00;103358.03;5016009;28;20496;-75
2021/10/08 08:17:57;;;;;;;207.40;17.80;;;;;;;8.56;100.00;103351.13;5016986;28;20033;-74
2021/10/08 08:20:22;;;;;;;129.82;19.48;;;;;;;8.61;100.00;103360.22;5015696;28;20108;-74
2021/10/08 08:22:48;;;;;;;188.68;19.30;;;;;;;8.60;100.00;103354.09;5016153;28;20129;-75
2021/10/08 08:25:13;;;;;;;210.75;19.13;;;;;;;8.61;100.00;103360.22;5015815;28;20528;-75
2021/10/08 08:27:38;;;;;;;112.00;17.15;;;;;;;8.56;100.00;103356.38;5016828;28;20188;-75
2021/10/08 08:30:06;;;;;;;119.20;20.00;;;;;;;8.65;100.00;103361.34;5015308;28;20068;-74
2021/10/08 08:32:32;;;;;;;145.05;19.00;;;;;;;8.74;100.00;103362.84;5026074;28;20386;-74
2021/10/08 08:34:59;;;;;;;135.13;20.27;;;;;;;8.78;100.00;103359.59;5010150;28;20029;-74
2021/10/08 08:37:25;;;;;;;44.80;21.77;;;;;;;8.89;100.00;103362.03;5016318;28;20083;-75
2021/10/08 08:39:50;;;;;;;85.13;23.75;;;;;;;9.03;100.00;103371.69;5014886;28;20389;-74
2021/10/08 08:42:17;;;;;;;124.63;22.08;;;;;;;9.09;100.00;103373.81;5015540;28;20082;-74
2021/10/08 08:44:43;;;;;;;49.38;21.85;;;;;;;9.14;100.00;103374.09;5015304;28;20037;-74
2021/10/08 08:47:14;;;;;;;44.35;21.77;;;;;;;9.19;100.00;103377.91;5015614;28;20033;-75
2021/10/08 08:49:39;;;;;;;43.45;20.80;;;;;;;9.25;100.00;103367.78;5014785;28;20022;-74
2021/10/08 08:52:04;;;;;;;118.18;23.55;;;;;;;9.26;100.00;103369.59;5013459;28;20039;-75
2021/10/08 08:54:30;;;;;;;47.40;22.17;;;;;;;9.27;100.00;103371.44;5028487;28;20405;-75
2021/10/08 08:56:55;;;;;;;112.03;23.52;;;;;;;9.36;100.00;103373.72;5020437;28;20060;-74
2021/10/08 08:59:21;;;;;;;91.78;24.30;;;;;;;9.41;100.00;103373.22;5015998;28;20462;-75
2021/10/08 09:02:00;;;;;;;135.05;23.45;;;;;;;9.49;100.00;103378.91;5014283;28;20113;-74
2021/10/08 09:04:28;;;;;;;178.20;22.60;;;;;;;9.43;100.00;103368.94;5014656;28;20034;-74
2021/10/08 09:06:54;;;;;;;64.28;22.58;;;;;;;9.47;100.00;103369.13;5012919;28;20039;-74
2021/10/08 09:09:21;;;;;;;208.55;25.33;;;;;;;9.50;100.00;103366.69;5014981;28;20029;-74
2021/10/08 09:11:50;;;;;;;90.88;24.40;;;;;;;9.52;100.00;103362.44;5013917;28;20534;-74
2021/10/08 09:14:20;;;;;;;55.85;24.42;;;;;;;9.61;100.00;103363.91;5011623;28;20041;-74
2021/10/08 09:17:19;;;;;;;108.63;28.17;;;;;;;9.75;100.00;103370.03;5013422;28;20037;-75
2021/10/08 09:19:50;;;;;;;56.33;25.35;;;;;;;9.87;100.00;103367.19;5004330;28;20490;-75
2021/10/08 09:22:24;;;;;;;93.85;27.80;;;;;;;9.95;100.00;103368.56;5012550;28;20045;-74
2021/10/08 09:24:50;;;;;;;132.88;27.17;;;;;;;9.89;100.00;103364.66;5007391;28;20113;-74
2021/10/08 09:27:19;;;;;;;146.25;27.52;;;;;;;9.88;100.00;103371.66;5012680;28;20076;-74
2021/10/08 09:29:49;;;;;;;83.93;28.88;;;;;;;10.02;100.00;103369.84;5012310;28;20029;-74
2021/10/08 09:32:16;;;;;;;67.68;27.98;;;;;;;10.12;100.00;103377.47;5012171;28;20033;-74
2021/10/08 09:34:41;;;;;;;111.20;29.25;;;;;;;10.27;100.00;103369.56;5015747;28;20033;-75
2021/10/08 09:37:09;;;;;;;80.85;30.77;;;;;;;10.33;100.00;103363.75;5014526;28;20445;-74
2021/10/08 09:39:37;;;;;;;91.13;29.60;;;;;;;10.33;100.00;103368.13;5014780;28;20391;-74
2021/10/08 09:42:21;;;;;;;110.53;27.92;;;;;;;10.45;100.00;103360.97;5013457;28;20078;-74
2021/10/08 09:44:50;;;;;;;131.15;29.25;;;;;;;10.42;100.00;103353.81;5007758;28;20018;-74
2021/10/08 09:47:17;;;;;;;66.30;29.55;;;;;;;10.52;100.00;103364.88;5011574;28;20105;-74
2021/10/08 09:49:45;;;;;;;99.68;31.52;;;;;;;10.44;100.00;103364.41;5010671;28;20099;-74
2021/10/08 09:52:27;;;;;;;89.47;28.00;;;;;;;10.50;100.00;103359.53;5012700;28;20030;-75
2021/10/08 09:54:54;;;;;;;93.90;29.95;;;;;;;10.57;100.00;103363.41;5004210;28;20030;-74
2021/10/08 09:57:21;;;;;;;68.57;31.35;;;;;;;10.70;100.00;103368.56;5015349;28;20022;-74
2021/10/08 09:59:48;;;;;;;59.95;27.73;;;;;;;10.74;100.00;103362.66;5017168;28;20029;-73
2021/10/08 10:02:13;;;;;;;64.40;31.55;;;;;;;10.79;100.00;103361.16;5014177;28;20087;-74
2021/10/08 10:04:45;;;;;;;69.13;30.02;;;;;;;10.88;100.00;103367.75;5012763;28;20474;-75
2021/10/08 10:07:14;;;;;;;68.40;33.20;;;;;;;10.94;100.00;103365.47;5012669;28;20399;-74
2021/10/08 10:09:39;;;;;;;70.85;32.78;;;;;;;11.13;100.00;103363.03;5012147;28;20053;-74
2021/10/08 10:12:06;;;;;;;66.75;33.75;;;;;;;11.19;100.00;103367.75;5015198;28;20030;-74
2021/10/08 10:14:32;;;;;;;72.75;33.10;;;;;;;11.22;100.00;103370.53;5013058;28;20049;-74
2021/10/08 10:16:58;;;;;;;69.20;31.85;;;;;;;11.27;100.00;103365.50;5014146;28;20018;-75
2021/10/08 10:19:24;;;;;;;65.45;31.13;;;;;;;11.34;100.00;103370.31;5028885;28;20129;-70
2021/10/08 10:21:53;;;;;;;68.03;33.88;;;;;;;11.43;100.00;103373.41;5013567;28;20084;-71
2021/10/08 10:24:19;;;;;;;62.88;33.55;;;;;;;11.47;100.00;103370.13;5013566;28;20037;-72
2021/10/08 10:26:44;;;;;;;60.53;31.00;;;;;;;11.59;100.00;103375.16;5012282;28;20030;-71
2021/10/08 10:29:10;;;;;;;58.08;32.03;;;;;;;11.61;99.97;103375.22;5011754;28;20053;-77
2021/10/08 10:31:36;;;;;;;64.20;33.58;;;;;;;11.63;100.00;103378.88;5014240;28;20150;-75
2021/10/08 10:34:03;;;;;;;73.40;34.35;;;;;;;11.77;100.00;103367.31;5014379;28;20033;-76
2021/10/08 10:36:31;;;;;;;64.78;33.75;;;;;;;11.88;100.00;103366.97;5013310;28;20029;-76
2021/10/08 10:39:19;;;;;;;64.60;32.47;;;;;;;12.05;99.02;103363.50;5012446;28;20033;-76
2021/10/08 10:42:13;;;;;;;70.38;36.42;;;;;;;12.41;100.00;103365.25;5008717;28;20556;-76
2021/10/08 10:45:07;;;;;;;63.55;33.35;;;;;;;12.86;97.70;103360.41;5013505;28;20073;-76
2021/10/08 10:47:35;;;;;;;62.58;35.08;;;;;;;13.05;96.45;103355.97;5013778;28;20030;-77
2021/10/08 10:50:24;;;;;;;61.55;33.10;;;;;;;13.24;93.07;103352.44;5013872;28;20437;-76
2021/10/08 10:52:53;;;;;;;59.20;34.15;;;;;;;13.23;93.55;103345.38;5012160;28;20167;-76
2021/10/08 10:55:21;;;;;;;61.63;33.70;;;;;;;13.19;94.29;103354.00;5011719;28;20026;-76
2021/10/08 10:57:49;;;;;;;52.58;32.13;;;;;;;13.53;94.00;103352.94;5012668;28;20021;-77
2021/10/08 11:00:36;;;;;;;57.95;33.85;;;;;;;14.03;90.45;103348.03;5012662;28;20469;-75
2021/10/08 11:03:09;;;;;;;51.00;33.42;;;;;;;14.70;91.23;103349.03;5008645;28;20091;-76